sensor_id;sensor_type;location;lat;lon;timestamp;temperature;humidity
75321;DHT22;68337;52.196;5.660;2024-03-02T00:01:28;8.60;99.90
75321;DHT22;68337;52.196;5.660;2024-03-02T00:03:54;8.70;99.90
75321;DHT22;68337;52.196;5.660;2024-03-02T00:06:20;8.70;99.90
75321;DHT22;68337;52.196;5.660;2024-03-02T00:08:47;8.70;99.90
75321;DHT22;68337;52.196;5.660;2024-03-02T00:11:13;8.70;99.90
75321;DHT22;68337;52.196;5.660;2024-03-02T00:13:40;8.70;99.90
75321;DHT22;68337;52.196;5.660;2024-03-02T00:16:06;8.80;99.90
75321;DHT22;68337;52.196;5.660;2024-03-02T00:18:34;8.80;99.90
75321;DHT22;68337;52.196;5.660;2024-03-02T00:21:00;8.80;99.90
75321;DHT22;68337;52.196;5.660;2024-03-02T00:23:30;8.80;99.90
75321;DHT22;68337;52.196;5.660;2024-03-02T00:25:57;8.80;99.90
75321;DHT22;68337;52.196;5.660;2024-03-02T00:28:32;8.80;99.90
75321;DHT22;68337;52.196;5.660;2024-03-02T00:31:07;8.90;99.90
75321;DHT22;68337;52.196;5.660;2024-03-02T00:33:34;8.90;99.90
75321;DHT22;68337;52.196;5.660;2024-03-02T00:36:02;8.90;99.90
75321;DHT22;68337;52.196;5.660;2024-03-02T00:38:30;8.90;99.90
75321;DHT22;68337;52.196;5.660;2024-03-02T00:41:04;8.90;99.90
75321;DHT22;68337;52.196;5.660;2024-03-02T00:43:41;8.90;99.90
75321;DHT22;68337;52.196;5.660;2024-03-02T00:46:08;9.00;99.90
75321;DHT22;68337;52.196;5.660;2024-03-02T00:48:34;9.00;99.90
75321;DHT22;68337;52.196;5.660;2024-03-02T00:51:02;9.00;99.90
75321;DHT22;68337;52.196;5.660;2024-03-02T00:53:30;9.00;99.90
75321;DHT22;68337;52.196;5.660;2024-03-02T00:55:57;9.00;99.90
75321;DHT22;68337;52.196;5.660;2024-03-02T00:58:22;9.00;99.90
75321;DHT22;68337;52.196;5.660;2024-03-02T01:00:48;9.00;99.90
75321;DHT22;68337;52.196;5.660;2024-03-02T01:03:14;9.00;99.90
75321;DHT22;68337;52.196;5.660;2024-03-02T01:05:42;9.00;99.90
75321;DHT22;68337;52.196;5.660;2024-03-02T01:08:08;8.90;99.90
75321;DHT22;68337;52.196;5.660;2024-03-02T01:10:34;9.00;99.90
75321;DHT22;68337;52.196;5.660;2024-03-02T01:13:00;9.00;99.90
75321;DHT22;68337;52.196;5.660;2024-03-02T01:15:25;9.00;99.90
75321;DHT22;68337;52.196;5.660;2024-03-02T01:17:51;8.90;99.90
75321;DHT22;68337;52.196;5.660;2024-03-02T01:20:17;8.80;99.90
75321;DHT22;68337;52.196;5.660;2024-03-02T01:22:43;8.80;99.90
75321;DHT22;68337;52.196;5.660;2024-03-02T01:25:09;8.80;99.90
75321;DHT22;68337;52.196;5.660;2024-03-02T01:27:35;8.80;99.90
75321;DHT22;68337;52.196;5.660;2024-03-02T01:30:01;8.70;99.90
75321;DHT22;68337;52.196;5.660;2024-03-02T01:32:26;8.60;99.90
75321;DHT22;68337;52.196;5.660;2024-03-02T01:34:52;8.70;99.90
75321;DHT22;68337;52.196;5.660;2024-03-02T01:37:18;8.60;99.90
75321;DHT22;68337;52.196;5.660;2024-03-02T01:39:44;8.60;99.90
75321;DHT22;68337;52.196;5.660;2024-03-02T01:42:10;8.50;99.90
75321;DHT22;68337;52.196;5.660;2024-03-02T01:44:36;8.50;99.90
75321;DHT22;68337;52.196;5.660;2024-03-02T01:47:02;8.40;99.90
75321;DHT22;68337;52.196;5.660;2024-03-02T01:49:28;8.40;99.90
75321;DHT22;68337;52.196;5.660;2024-03-02T01:51:53;8.40;99.90
75321;DHT22;68337;52.196;5.660;2024-03-02T01:54:19;8.50;99.90
75321;DHT22;68337;52.196;5.660;2024-03-02T01:56:45;8.50;99.90
75321;DHT22;68337;52.196;5.660;2024-03-02T01:59:11;8.40;99.90
75321;DHT22;68337;52.196;5.660;2024-03-02T02:01:39;8.30;99.90
75321;DHT22;68337;52.196;5.660;2024-03-02T02:04:04;8.40;99.90
75321;DHT22;68337;52.196;5.660;2024-03-02T02:06:32;8.30;99.90
75321;DHT22;68337;52.196;5.660;2024-03-02T02:08:57;8.30;99.90
75321;DHT22;68337;52.196;5.660;2024-03-02T02:11:24;8.20;99.90
75321;DHT22;68337;52.196;5.660;2024-03-02T02:13:50;8.20;99.90
75321;DHT22;68337;52.196;5.660;2024-03-02T02:16:15;8.10;99.90
75321;DHT22;68337;52.196;5.660;2024-03-02T02:18:41;8.10;99.90
75321;DHT22;68337;52.196;5.660;2024-03-02T02:21:07;8.20;99.90
75321;DHT22;68337;52.196;5.660;2024-03-02T02:23:33;8.10;99.90
75321;DHT22;68337;52.196;5.660;2024-03-02T02:25:59;8.10;99.90
75321;DHT22;68337;52.196;5.660;2024-03-02T02:28:25;8.10;99.90
75321;DHT22;68337;52.196;5.660;2024-03-02T02:30:50;8.10;99.90
75321;DHT22;68337;52.196;5.660;2024-03-02T02:33:16;8.10;99.90
75321;DHT22;68337;52.196;5.660;2024-03-02T02:35:42;8.00;99.90
75321;DHT22;68337;52.196;5.660;2024-03-02T02:38:08;8.00;99.90
75321;DHT22;68337;52.196;5.660;2024-03-02T02:40:34;8.00;99.90
75321;DHT22;68337;52.196;5.660;2024-03-02T02:42:59;7.90;99.90
75321;DHT22;68337;52.196;5.660;2024-03-02T02:45:25;7.90;99.90
75321;DHT22;68337;52.196;5.660;2024-03-02T02:47:51;7.80;99.90
75321;DHT22;68337;52.196;5.660;2024-03-02T02:50:17;7.80;99.90
75321;DHT22;68337;52.196;5.660;2024-03-02T02:52:43;7.80;99.90
75321;DHT22;68337;52.196;5.660;2024-03-02T02:55:10;7.70;99.90
75321;DHT22;68337;52.196;5.660;2024-03-02T02:57:37;7.70;99.90
75321;DHT22;68337;52.196;5.660;2024-03-02T03:00:09;7.70;99.90
75321;DHT22;68337;52.196;5.660;2024-03-02T03:02:37;7.70;99.90
75321;DHT22;68337;52.196;5.660;2024-03-02T03:05:05;7.70;99.90
75321;DHT22;68337;52.196;5.660;2024-03-02T03:07:32;7.70;99.90
75321;DHT22;68337;52.196;5.660;2024-03-02T03:09:58;7.60;99.90
75321;DHT22;68337;52.196;5.660;2024-03-02T03:12:24;7.60;99.90
75321;DHT22;68337;52.196;5.660;2024-03-02T03:14:49;7.50;99.90
75321;DHT22;68337;52.196;5.660;2024-03-02T03:17:15;7.50;99.90
75321;DHT22;68337;52.196;5.660;2024-03-02T03:19:41;7.50;99.90
75321;DHT22;68337;52.196;5.660;2024-03-02T03:22:06;7.50;99.90
75321;DHT22;68337;52.196;5.660;2024-03-02T03:24:32;7.50;99.90
75321;DHT22;68337;52.196;5.660;2024-03-02T03:26:58;7.50;99.90
75321;DHT22;68337;52.196;5.660;2024-03-02T03:29:24;7.40;99.90
75321;DHT22;68337;52.196;5.660;2024-03-02T03:31:50;7.40;99.90
75321;DHT22;68337;52.196;5.660;2024-03-02T03:34:16;7.40;99.90
75321;DHT22;68337;52.196;5.660;2024-03-02T03:36:42;7.30;99.90
75321;DHT22;68337;52.196;5.660;2024-03-02T03:39:08;7.40;99.90
75321;DHT22;68337;52.196;5.660;2024-03-02T03:41:34;7.30;99.90
75321;DHT22;68337;52.196;5.660;2024-03-02T03:43:59;7.30;99.90
75321;DHT22;68337;52.196;5.660;2024-03-02T03:46:25;7.30;99.90
75321;DHT22;68337;52.196;5.660;2024-03-02T03:48:51;7.30;99.90
75321;DHT22;68337;52.196;5.660;2024-03-02T03:51:17;7.30;99.90
75321;DHT22;68337;52.196;5.660;2024-03-02T03:53:42;7.30;99.90
75321;DHT22;68337;52.196;5.660;2024-03-02T03:56:08;7.30;99.90
75321;DHT22;68337;52.196;5.660;2024-03-02T03:58:34;7.20;99.90
75321;DHT22;68337;52.196;5.660;2024-03-02T04:00:59;7.30;99.90
75321;DHT22;68337;52.196;5.660;2024-03-02T04:03:25;7.20;99.90
75321;DHT22;68337;52.196;5.660;2024-03-02T04:05:51;7.30;99.90
75321;DHT22;68337;52.196;5.660;2024-03-02T04:08:16;7.20;99.90
75321;DHT22;68337;52.196;5.660;2024-03-02T04:10:42;7.20;99.90
75321;DHT22;68337;52.196;5.660;2024-03-02T04:13:08;7.20;99.90
75321;DHT22;68337;52.196;5.660;2024-03-02T04:15:33;7.20;99.90
75321;DHT22;68337;52.196;5.660;2024-03-02T04:17:59;7.10;99.90
75321;DHT22;68337;52.196;5.660;2024-03-02T04:20:25;7.10;99.90
75321;DHT22;68337;52.196;5.660;2024-03-02T04:22:51;7.10;99.90
75321;DHT22;68337;52.196;5.660;2024-03-02T04:25:16;7.10;99.90
75321;DHT22;68337;52.196;5.660;2024-03-02T04:27:42;7.10;99.90
75321;DHT22;68337;52.196;5.660;2024-03-02T04:30:08;7.10;99.90
75321;DHT22;68337;52.196;5.660;2024-03-02T04:32:34;7.10;99.90
75321;DHT22;68337;52.196;5.660;2024-03-02T04:35:01;7.10;99.90
75321;DHT22;68337;52.196;5.660;2024-03-02T04:37:27;7.00;99.90
75321;DHT22;68337;52.196;5.660;2024-03-02T04:39:53;7.10;99.90
75321;DHT22;68337;52.196;5.660;2024-03-02T04:42:19;7.10;99.90
75321;DHT22;68337;52.196;5.660;2024-03-02T04:44:45;7.10;99.90
75321;DHT22;68337;52.196;5.660;2024-03-02T04:47:10;7.10;99.90
75321;DHT22;68337;52.196;5.660;2024-03-02T04:49:36;7.00;99.90
75321;DHT22;68337;52.196;5.660;2024-03-02T04:52:02;7.00;99.90
75321;DHT22;68337;52.196;5.660;2024-03-02T04:54:28;7.10;99.90
75321;DHT22;68337;52.196;5.660;2024-03-02T04:56:54;6.90;99.90
75321;DHT22;68337;52.196;5.660;2024-03-02T04:59:19;6.90;99.90
75321;DHT22;68337;52.196;5.660;2024-03-02T05:01:46;6.90;99.90
75321;DHT22;68337;52.196;5.660;2024-03-02T05:04:12;6.70;99.90
75321;DHT22;68337;52.196;5.660;2024-03-02T05:06:39;6.70;99.90
75321;DHT22;68337;52.196;5.660;2024-03-02T05:09:06;6.60;99.90
75321;DHT22;68337;52.196;5.660;2024-03-02T05:11:32;6.60;99.90
75321;DHT22;68337;52.196;5.660;2024-03-02T05:14:17;6.60;99.90
75321;DHT22;68337;52.196;5.660;2024-03-02T05:16:43;6.60;99.90
75321;DHT22;68337;52.196;5.660;2024-03-02T05:19:09;6.60;99.90
75321;DHT22;68337;52.196;5.660;2024-03-02T05:21:35;6.60;99.90
75321;DHT22;68337;52.196;5.660;2024-03-02T05:24:00;6.50;99.90
75321;DHT22;68337;52.196;5.660;2024-03-02T05:26:26;6.50;99.90
75321;DHT22;68337;52.196;5.660;2024-03-02T05:28:52;6.40;99.90
75321;DHT22;68337;52.196;5.660;2024-03-02T05:31:18;6.40;99.90
75321;DHT22;68337;52.196;5.660;2024-03-02T05:33:44;6.30;99.90
75321;DHT22;68337;52.196;5.660;2024-03-02T05:36:09;6.30;99.90
75321;DHT22;68337;52.196;5.660;2024-03-02T05:38:35;6.40;99.90
75321;DHT22;68337;52.196;5.660;2024-03-02T05:41:02;6.40;99.90
75321;DHT22;68337;52.196;5.660;2024-03-02T05:43:28;6.50;99.90
75321;DHT22;68337;52.196;5.660;2024-03-02T05:45:54;6.60;99.90
75321;DHT22;68337;52.196;5.660;2024-03-02T05:48:19;6.60;99.90
75321;DHT22;68337;52.196;5.660;2024-03-02T05:50:45;6.60;99.90
75321;DHT22;68337;52.196;5.660;2024-03-02T05:53:11;6.60;99.90
75321;DHT22;68337;52.196;5.660;2024-03-02T05:55:37;6.50;99.90
75321;DHT22;68337;52.196;5.660;2024-03-02T05:58:02;6.50;99.90
75321;DHT22;68337;52.196;5.660;2024-03-02T06:00:47;6.50;99.90
75321;DHT22;68337;52.196;5.660;2024-03-02T06:03:12;6.60;99.90
75321;DHT22;68337;52.196;5.660;2024-03-02T06:05:38;6.60;99.90
75321;DHT22;68337;52.196;5.660;2024-03-02T06:08:04;6.60;99.90
75321;DHT22;68337;52.196;5.660;2024-03-02T06:10:30;6.60;99.90
75321;DHT22;68337;52.196;5.660;2024-03-02T06:12:55;6.60;99.90
75321;DHT22;68337;52.196;5.660;2024-03-02T06:15:21;6.60;99.90
75321;DHT22;68337;52.196;5.660;2024-03-02T06:17:47;6.60;99.90
75321;DHT22;68337;52.196;5.660;2024-03-02T06:20:12;6.50;99.90
75321;DHT22;68337;52.196;5.660;2024-03-02T06:22:38;6.50;99.90
75321;DHT22;68337;52.196;5.660;2024-03-02T06:25:04;6.50;99.90
75321;DHT22;68337;52.196;5.660;2024-03-02T06:27:30;6.40;99.90
75321;DHT22;68337;52.196;5.660;2024-03-02T06:29:55;6.40;99.90
75321;DHT22;68337;52.196;5.660;2024-03-02T06:32:21;6.40;99.90
75321;DHT22;68337;52.196;5.660;2024-03-02T06:34:48;6.30;99.90
75321;DHT22;68337;52.196;5.660;2024-03-02T06:37:14;6.30;99.90
75321;DHT22;68337;52.196;5.660;2024-03-02T06:39:41;6.20;99.90
75321;DHT22;68337;52.196;5.660;2024-03-02T06:42:07;6.30;99.90
75321;DHT22;68337;52.196;5.660;2024-03-02T06:44:33;6.10;99.90
75321;DHT22;68337;52.196;5.660;2024-03-02T06:46:59;6.00;99.90
75321;DHT22;68337;52.196;5.660;2024-03-02T06:49:25;6.00;99.90
75321;DHT22;68337;52.196;5.660;2024-03-02T06:51:50;5.90;99.90
75321;DHT22;68337;52.196;5.660;2024-03-02T06:54:16;6.10;99.90
75321;DHT22;68337;52.196;5.660;2024-03-02T06:56:42;6.10;99.90
75321;DHT22;68337;52.196;5.660;2024-03-02T06:59:07;6.10;99.90
75321;DHT22;68337;52.196;5.660;2024-03-02T07:01:33;6.10;99.90
75321;DHT22;68337;52.196;5.660;2024-03-02T07:04:00;6.20;99.90
75321;DHT22;68337;52.196;5.660;2024-03-02T07:06:25;6.30;99.90
75321;DHT22;68337;52.196;5.660;2024-03-02T07:08:51;6.30;99.90
75321;DHT22;68337;52.196;5.660;2024-03-02T07:11:17;6.40;99.90
75321;DHT22;68337;52.196;5.660;2024-03-02T07:13:42;6.40;99.90
75321;DHT22;68337;52.196;5.660;2024-03-02T07:16:08;6.50;99.90
75321;DHT22;68337;52.196;5.660;2024-03-02T07:18:52;6.50;99.90
75321;DHT22;68337;52.196;5.660;2024-03-02T07:21:18;6.60;99.90
75321;DHT22;68337;52.196;5.660;2024-03-02T07:23:44;6.70;99.90
75321;DHT22;68337;52.196;5.660;2024-03-02T07:26:09;6.70;99.90
75321;DHT22;68337;52.196;5.660;2024-03-02T07:28:35;6.70;99.90
75321;DHT22;68337;52.196;5.660;2024-03-02T07:31:02;6.80;99.90
75321;DHT22;68337;52.196;5.660;2024-03-02T07:33:30;6.80;99.90
75321;DHT22;68337;52.196;5.660;2024-03-02T07:35:56;6.70;99.90
75321;DHT22;68337;52.196;5.660;2024-03-02T07:38:23;6.80;99.90
75321;DHT22;68337;52.196;5.660;2024-03-02T07:40:50;6.70;99.90
75321;DHT22;68337;52.196;5.660;2024-03-02T07:43:17;6.70;99.90
75321;DHT22;68337;52.196;5.660;2024-03-02T07:45:43;6.80;99.90
75321;DHT22;68337;52.196;5.660;2024-03-02T07:48:09;6.80;99.90
75321;DHT22;68337;52.196;5.660;2024-03-02T07:50:35;6.80;99.90
75321;DHT22;68337;52.196;5.660;2024-03-02T07:53:01;6.90;99.90
75321;DHT22;68337;52.196;5.660;2024-03-02T07:55:27;7.00;99.90
75321;DHT22;68337;52.196;5.660;2024-03-02T07:57:53;7.20;99.90
75321;DHT22;68337;52.196;5.660;2024-03-02T08:00:18;7.40;99.90
75321;DHT22;68337;52.196;5.660;2024-03-02T08:02:44;7.60;99.90
75321;DHT22;68337;52.196;5.660;2024-03-02T08:05:10;7.90;99.90
75321;DHT22;68337;52.196;5.660;2024-03-02T08:07:36;8.30;99.90
75321;DHT22;68337;52.196;5.660;2024-03-02T08:10:02;8.60;99.90
75321;DHT22;68337;52.196;5.660;2024-03-02T08:12:28;8.90;99.90
75321;DHT22;68337;52.196;5.660;2024-03-02T08:14:54;9.00;99.90
75321;DHT22;68337;52.196;5.660;2024-03-02T08:17:19;9.20;99.90
75321;DHT22;68337;52.196;5.660;2024-03-02T08:19:45;9.30;99.90
75321;DHT22;68337;52.196;5.660;2024-03-02T08:22:15;9.30;99.90
75321;DHT22;68337;52.196;5.660;2024-03-02T08:24:41;9.40;99.90
75321;DHT22;68337;52.196;5.660;2024-03-02T08:27:07;9.40;99.90
75321;DHT22;68337;52.196;5.660;2024-03-02T08:29:32;9.40;99.90
75321;DHT22;68337;52.196;5.660;2024-03-02T08:31:58;9.40;99.90
75321;DHT22;68337;52.196;5.660;2024-03-02T08:34:24;9.40;99.90
75321;DHT22;68337;52.196;5.660;2024-03-02T08:36:49;9.50;99.90
75321;DHT22;68337;52.196;5.660;2024-03-02T08:39:15;9.60;99.90
75321;DHT22;68337;52.196;5.660;2024-03-02T08:41:44;9.80;99.90
75321;DHT22;68337;52.196;5.660;2024-03-02T08:44:10;9.80;99.90
75321;DHT22;68337;52.196;5.660;2024-03-02T08:46:35;9.90;99.90
75321;DHT22;68337;52.196;5.660;2024-03-02T08:49:02;9.80;99.90
75321;DHT22;68337;52.196;5.660;2024-03-02T08:51:27;9.90;99.90
75321;DHT22;68337;52.196;5.660;2024-03-02T08:53:53;9.80;99.90
75321;DHT22;68337;52.196;5.660;2024-03-02T08:56:19;9.70;99.90
75321;DHT22;68337;52.196;5.660;2024-03-02T08:58:47;9.80;99.90
75321;DHT22;68337;52.196;5.660;2024-03-02T09:01:12;9.90;99.90
75321;DHT22;68337;52.196;5.660;2024-03-02T09:03:38;10.10;99.90
75321;DHT22;68337;52.196;5.660;2024-03-02T09:06:05;10.10;99.90
75321;DHT22;68337;52.196;5.660;2024-03-02T09:08:31;10.20;99.90
75321;DHT22;68337;52.196;5.660;2024-03-02T09:10:57;10.40;99.90
75321;DHT22;68337;52.196;5.660;2024-03-02T09:13:23;10.50;99.90
75321;DHT22;68337;52.196;5.660;2024-03-02T09:15:49;10.50;99.90
75321;DHT22;68337;52.196;5.660;2024-03-02T09:18:15;10.70;99.90
75321;DHT22;68337;52.196;5.660;2024-03-02T09:20:41;10.80;99.90
75321;DHT22;68337;52.196;5.660;2024-03-02T09:23:06;10.80;99.90
75321;DHT22;68337;52.196;5.660;2024-03-02T09:25:32;10.90;99.90
75321;DHT22;68337;52.196;5.660;2024-03-02T09:27:58;11.20;99.90
75321;DHT22;68337;52.196;5.660;2024-03-02T09:30:24;11.50;99.90
75321;DHT22;68337;52.196;5.660;2024-03-02T09:32:50;11.80;99.90
75321;DHT22;68337;52.196;5.660;2024-03-02T09:35:16;11.90;99.90
75321;DHT22;68337;52.196;5.660;2024-03-02T09:37:42;11.90;99.90
75321;DHT22;68337;52.196;5.660;2024-03-02T09:40:08;11.80;99.90
75321;DHT22;68337;52.196;5.660;2024-03-02T09:42:35;11.90;99.90
75321;DHT22;68337;52.196;5.660;2024-03-02T09:45:01;12.30;99.90
75321;DHT22;68337;52.196;5.660;2024-03-02T09:47:27;12.40;99.90
75321;DHT22;68337;52.196;5.660;2024-03-02T09:49:53;12.30;99.90
75321;DHT22;68337;52.196;5.660;2024-03-02T09:52:22;12.50;99.90
75321;DHT22;68337;52.196;5.660;2024-03-02T09:54:48;12.80;99.90
75321;DHT22;68337;52.196;5.660;2024-03-02T09:57:14;12.40;99.90
75321;DHT22;68337;52.196;5.660;2024-03-02T09:59:40;12.50;99.90
75321;DHT22;68337;52.196;5.660;2024-03-02T10:02:06;12.50;99.90
75321;DHT22;68337;52.196;5.660;2024-03-02T10:04:33;12.30;99.90
75321;DHT22;68337;52.196;5.660;2024-03-02T10:07:11;12.60;99.90
75321;DHT22;68337;52.196;5.660;2024-03-02T10:09:38;12.90;99.90
75321;DHT22;68337;52.196;5.660;2024-03-02T10:12:06;12.80;99.90
75321;DHT22;68337;52.196;5.660;2024-03-02T10:14:32;13.00;99.90
75321;DHT22;68337;52.196;5.660;2024-03-02T10:17:06;13.10;99.90
75321;DHT22;68337;52.196;5.660;2024-03-02T10:19:33;13.10;99.90
75321;DHT22;68337;52.196;5.660;2024-03-02T10:22:00;13.30;99.90
75321;DHT22;68337;52.196;5.660;2024-03-02T10:24:26;13.30;99.90
75321;DHT22;68337;52.196;5.660;2024-03-02T10:26:53;13.50;99.90
75321;DHT22;68337;52.196;5.660;2024-03-02T10:29:19;13.40;99.90
75321;DHT22;68337;52.196;5.660;2024-03-02T10:31:45;13.70;99.90
75321;DHT22;68337;52.196;5.660;2024-03-02T10:34:12;13.80;99.90
75321;DHT22;68337;52.196;5.660;2024-03-02T10:36:41;14.10;99.90
75321;DHT22;68337;52.196;5.660;2024-03-02T10:39:08;13.80;99.90
75321;DHT22;68337;52.196;5.660;2024-03-02T10:41:37;13.80;99.90
75321;DHT22;68337;52.196;5.660;2024-03-02T10:44:04;14.10;99.90
75321;DHT22;68337;52.196;5.660;2024-03-02T10:46:32;14.30;99.90
75321;DHT22;68337;52.196;5.660;2024-03-02T10:49:00;14.20;99.90
75321;DHT22;68337;52.196;5.660;2024-03-02T10:51:27;14.10;99.90
75321;DHT22;68337;52.196;5.660;2024-03-02T10:53:57;13.90;99.90
75321;DHT22;68337;52.196;5.660;2024-03-02T10:56:28;14.10;99.90
75321;DHT22;68337;52.196;5.660;2024-03-02T10:59:01;14.00;99.90
75321;DHT22;68337;52.196;5.660;2024-03-02T11:01:31;13.90;99.90
75321;DHT22;68337;52.196;5.660;2024-03-02T11:03:58;13.80;99.90
75321;DHT22;68337;52.196;5.660;2024-03-02T11:06:28;14.00;99.90
75321;DHT22;68337;52.196;5.660;2024-03-02T11:08:55;14.30;99.90
75321;DHT22;68337;52.196;5.660;2024-03-02T11:11:30;14.60;99.90
75321;DHT22;68337;52.196;5.660;2024-03-02T11:14:01;14.50;99.90
75321;DHT22;68337;52.196;5.660;2024-03-02T11:16:36;14.60;99.90
75321;DHT22;68337;52.196;5.660;2024-03-02T11:19:05;14.50;99.90
75321;DHT22;68337;52.196;5.660;2024-03-02T11:21:33;14.50;99.90
75321;DHT22;68337;52.196;5.660;2024-03-02T11:23:59;14.40;99.90
75321;DHT22;68337;52.196;5.660;2024-03-02T11:26:25;14.30;99.90
75321;DHT22;68337;52.196;5.660;2024-03-02T11:28:51;14.50;99.90
75321;DHT22;68337;52.196;5.660;2024-03-02T11:31:17;14.50;99.90
75321;DHT22;68337;52.196;5.660;2024-03-02T11:33:42;14.50;99.90
75321;DHT22;68337;52.196;5.660;2024-03-02T11:36:09;14.50;99.90
75321;DHT22;68337;52.196;5.660;2024-03-02T11:38:35;14.80;99.90
75321;DHT22;68337;52.196;5.660;2024-03-02T11:41:03;15.00;99.90
75321;DHT22;68337;52.196;5.660;2024-03-02T11:43:32;14.90;99.90
75321;DHT22;68337;52.196;5.660;2024-03-02T11:46:00;14.90;99.90
75321;DHT22;68337;52.196;5.660;2024-03-02T11:48:29;15.00;99.90
75321;DHT22;68337;52.196;5.660;2024-03-02T11:50:58;15.00;99.90
75321;DHT22;68337;52.196;5.660;2024-03-02T11:53:27;15.20;99.90
75321;DHT22;68337;52.196;5.660;2024-03-02T11:55:55;15.20;99.90
75321;DHT22;68337;52.196;5.660;2024-03-02T11:58:21;15.10;99.90
75321;DHT22;68337;52.196;5.660;2024-03-02T12:00:52;15.30;99.90
75321;DHT22;68337;52.196;5.660;2024-03-02T12:03:18;15.30;99.90
75321;DHT22;68337;52.196;5.660;2024-03-02T12:05:49;15.30;99.90
75321;DHT22;68337;52.196;5.660;2024-03-02T12:08:15;15.30;99.90
75321;DHT22;68337;52.196;5.660;2024-03-02T12:10:41;15.20;99.90
75321;DHT22;68337;52.196;5.660;2024-03-02T12:13:07;15.20;99.90
75321;DHT22;68337;52.196;5.660;2024-03-02T12:15:36;15.20;99.90
75321;DHT22;68337;52.196;5.660;2024-03-02T12:18:03;15.00;99.90
75321;DHT22;68337;52.196;5.660;2024-03-02T12:20:31;15.00;99.90
75321;DHT22;68337;52.196;5.660;2024-03-02T12:22:59;14.90;99.90
75321;DHT22;68337;52.196;5.660;2024-03-02T12:25:26;14.50;99.90
75321;DHT22;68337;52.196;5.660;2024-03-02T12:27:55;14.30;99.90
75321;DHT22;68337;52.196;5.660;2024-03-02T12:30:24;14.10;99.90
75321;DHT22;68337;52.196;5.660;2024-03-02T12:32:50;14.00;99.90
75321;DHT22;68337;52.196;5.660;2024-03-02T12:35:16;14.00;99.90
75321;DHT22;68337;52.196;5.660;2024-03-02T12:37:45;13.80;99.90
75321;DHT22;68337;52.196;5.660;2024-03-02T12:40:12;14.10;99.90
75321;DHT22;68337;52.196;5.660;2024-03-02T12:42:38;14.40;99.90
75321;DHT22;68337;52.196;5.660;2024-03-02T12:45:05;14.60;99.90
75321;DHT22;68337;52.196;5.660;2024-03-02T12:47:32;14.90;99.90
75321;DHT22;68337;52.196;5.660;2024-03-02T12:49:59;15.00;99.90
75321;DHT22;68337;52.196;5.660;2024-03-02T12:52:25;14.90;99.90
75321;DHT22;68337;52.196;5.660;2024-03-02T12:54:51;15.10;99.90
75321;DHT22;68337;52.196;5.660;2024-03-02T12:57:18;15.20;99.90
75321;DHT22;68337;52.196;5.660;2024-03-02T12:59:45;15.10;99.90
75321;DHT22;68337;52.196;5.660;2024-03-02T13:02:17;15.20;99.90
75321;DHT22;68337;52.196;5.660;2024-03-02T13:04:44;15.10;99.90
75321;DHT22;68337;52.196;5.660;2024-03-02T13:07:11;14.90;99.90
75321;DHT22;68337;52.196;5.660;2024-03-02T13:09:39;14.80;99.90
75321;DHT22;68337;52.196;5.660;2024-03-02T13:12:05;14.90;99.90
75321;DHT22;68337;52.196;5.660;2024-03-02T13:14:33;15.20;99.90
75321;DHT22;68337;52.196;5.660;2024-03-02T13:16:59;14.90;99.90
75321;DHT22;68337;52.196;5.660;2024-03-02T13:19:25;14.70;99.90
75321;DHT22;68337;52.196;5.660;2024-03-02T13:21:51;14.90;99.90
75321;DHT22;68337;52.196;5.660;2024-03-02T13:24:17;15.00;99.90
75321;DHT22;68337;52.196;5.660;2024-03-02T13:26:42;15.00;99.90
75321;DHT22;68337;52.196;5.660;2024-03-02T13:29:09;15.00;99.90
75321;DHT22;68337;52.196;5.660;2024-03-02T13:31:35;15.10;99.90
75321;DHT22;68337;52.196;5.660;2024-03-02T13:34:00;15.30;99.90
75321;DHT22;68337;52.196;5.660;2024-03-02T13:36:26;15.30;99.90
75321;DHT22;68337;52.196;5.660;2024-03-02T13:38:52;15.30;99.90
75321;DHT22;68337;52.196;5.660;2024-03-02T13:41:18;15.30;99.90
75321;DHT22;68337;52.196;5.660;2024-03-02T13:43:46;15.40;99.90
75321;DHT22;68337;52.196;5.660;2024-03-02T13:46:11;15.40;99.90
75321;DHT22;68337;52.196;5.660;2024-03-02T13:48:37;15.30;99.90
75321;DHT22;68337;52.196;5.660;2024-03-02T13:51:03;15.40;99.90
75321;DHT22;68337;52.196;5.660;2024-03-02T13:53:29;15.20;99.90
75321;DHT22;68337;52.196;5.660;2024-03-02T13:55:55;15.10;99.90
75321;DHT22;68337;52.196;5.660;2024-03-02T13:58:21;15.10;99.90
75321;DHT22;68337;52.196;5.660;2024-03-02T14:00:46;15.10;99.90
75321;DHT22;68337;52.196;5.660;2024-03-02T14:03:12;15.00;99.90
75321;DHT22;68337;52.196;5.660;2024-03-02T14:05:38;15.00;99.90
75321;DHT22;68337;52.196;5.660;2024-03-02T14:08:04;14.90;99.90
75321;DHT22;68337;52.196;5.660;2024-03-02T14:10:30;14.80;99.90
75321;DHT22;68337;52.196;5.660;2024-03-02T14:12:56;14.70;99.90
75321;DHT22;68337;52.196;5.660;2024-03-02T14:15:22;14.60;99.90
75321;DHT22;68337;52.196;5.660;2024-03-02T14:17:49;14.50;99.90
75321;DHT22;68337;52.196;5.660;2024-03-02T14:20:15;14.50;99.90
75321;DHT22;68337;52.196;5.660;2024-03-02T14:22:47;14.50;99.90
75321;DHT22;68337;52.196;5.660;2024-03-02T14:25:13;14.70;99.90
75321;DHT22;68337;52.196;5.660;2024-03-02T14:27:39;14.80;99.90
75321;DHT22;68337;52.196;5.660;2024-03-02T14:30:05;14.70;99.90
75321;DHT22;68337;52.196;5.660;2024-03-02T14:32:32;14.60;99.90
75321;DHT22;68337;52.196;5.660;2024-03-02T14:34:58;14.50;99.90
75321;DHT22;68337;52.196;5.660;2024-03-02T14:37:23;14.50;99.90
75321;DHT22;68337;52.196;5.660;2024-03-02T14:39:49;14.40;99.90
75321;DHT22;68337;52.196;5.660;2024-03-02T14:42:15;14.30;99.90
75321;DHT22;68337;52.196;5.660;2024-03-02T14:44:41;14.20;99.90
75321;DHT22;68337;52.196;5.660;2024-03-02T14:47:07;14.20;99.90
75321;DHT22;68337;52.196;5.660;2024-03-02T14:49:33;14.30;99.90
75321;DHT22;68337;52.196;5.660;2024-03-02T14:52:02;14.30;99.90
75321;DHT22;68337;52.196;5.660;2024-03-02T14:54:28;14.20;99.90
75321;DHT22;68337;52.196;5.660;2024-03-02T14:56:54;14.30;99.90
75321;DHT22;68337;52.196;5.660;2024-03-02T14:59:21;14.10;99.90
75321;DHT22;68337;52.196;5.660;2024-03-02T15:01:47;14.00;99.90
75321;DHT22;68337;52.196;5.660;2024-03-02T15:04:14;14.00;99.90
75321;DHT22;68337;52.196;5.660;2024-03-02T15:06:42;13.90;99.90
75321;DHT22;68337;52.196;5.660;2024-03-02T15:09:11;13.90;99.90
75321;DHT22;68337;52.196;5.660;2024-03-02T15:11:37;13.80;99.90
75321;DHT22;68337;52.196;5.660;2024-03-02T15:14:03;13.80;99.90
75321;DHT22;68337;52.196;5.660;2024-03-02T15:16:29;13.80;99.90
75321;DHT22;68337;52.196;5.660;2024-03-02T15:18:55;13.80;99.90
75321;DHT22;68337;52.196;5.660;2024-03-02T15:21:21;13.70;99.90
75321;DHT22;68337;52.196;5.660;2024-03-02T15:23:47;13.70;99.90
75321;DHT22;68337;52.196;5.660;2024-03-02T15:26:12;13.50;99.90
75321;DHT22;68337;52.196;5.660;2024-03-02T15:28:38;13.50;99.90
75321;DHT22;68337;52.196;5.660;2024-03-02T15:31:04;13.50;99.90
75321;DHT22;68337;52.196;5.660;2024-03-02T15:33:30;13.40;99.90
75321;DHT22;68337;52.196;5.660;2024-03-02T15:35:58;13.40;99.90